sensor_id;sensor_type;location;lat;lon;timestamp;P1;durP1;ratioP1;P2;durP2;ratioP2
20619;SDS011;10469;42.720;23.252;2023-07-20T00:00:28;0.63;;;0.63;;
20619;SDS011;10469;42.720;23.252;2023-07-20T00:03:05;8.65;;;2.25;;
20619;SDS011;10469;42.720;23.252;2023-07-20T00:05:42;11.35;;;2.88;;
20619;SDS011;10469;42.720;23.252;2023-07-20T00:08:09;11.73;;;2.97;;
20619;SDS011;10469;42.720;23.252;2023-07-20T00:10:34;8.07;;;3.63;;
20619;SDS011;10469;42.720;23.252;2023-07-20T00:13:00;13.05;;;3.65;;
20619;SDS011;10469;42.720;23.252;2023-07-20T00:15:25;9.50;;;3.05;;
20619;SDS011;10469;42.720;23.252;2023-07-20T00:17:51;8.43;;;3.10;;
20619;SDS011;10469;42.720;23.252;2023-07-20T00:20:16;14.90;;;3.60;;
20619;SDS011;10469;42.720;23.252;2023-07-20T00:22:43;10.55;;;2.80;;
20619;SDS011;10469;42.720;23.252;2023-07-20T00:25:09;19.75;;;3.40;;
20619;SDS011;10469;42.720;23.252;2023-07-20T00:27:36;12.45;;;3.10;;
20619;SDS011;10469;42.720;23.252;2023-07-20T00:30:03;13.25;;;3.10;;
20619;SDS011;10469;42.720;23.252;2023-07-20T00:32:29;10.20;;;2.88;;
20619;SDS011;10469;42.720;23.252;2023-07-20T00:34:55;9.43;;;3.17;;
20619;SDS011;10469;42.720;23.252;2023-07-20T00:37:20;12.18;;;2.90;;
20619;SDS011;10469;42.720;23.252;2023-07-20T00:39:46;11.10;;;3.20;;
20619;SDS011;10469;42.720;23.252;2023-07-20T00:42:12;13.50;;;3.15;;
20619;SDS011;10469;42.720;23.252;2023-07-20T00:44:37;8.27;;;3.00;;
20619;SDS011;10469;42.720;23.252;2023-07-20T00:47:03;11.65;;;3.30;;
20619;SDS011;10469;42.720;23.252;2023-07-20T00:49:30;14.65;;;3.05;;
20619;SDS011;10469;42.720;23.252;2023-07-20T00:51:56;7.32;;;3.00;;
20619;SDS011;10469;42.720;23.252;2023-07-20T00:54:22;14.77;;;3.00;;
20619;SDS011;10469;42.720;23.252;2023-07-20T00:56:48;14.60;;;3.08;;
20619;SDS011;10469;42.720;23.252;2023-07-20T00:59:15;10.68;;;2.90;;
20619;SDS011;10469;42.720;23.252;2023-07-20T01:01:41;11.63;;;3.17;;
20619;SDS011;10469;42.720;23.252;2023-07-20T01:04:07;8.05;;;2.83;;
20619;SDS011;10469;42.720;23.252;2023-07-20T01:14:14;9.15;;;3.05;;
20619;SDS011;10469;42.720;23.252;2023-07-20T01:16:42;11.32;;;3.25;;
20619;SDS011;10469;42.720;23.252;2023-07-20T01:19:07;9.50;;;2.92;;
20619;SDS011;10469;42.720;23.252;2023-07-20T01:21:34;11.75;;;3.53;;
20619;SDS011;10469;42.720;23.252;2023-07-20T01:32:46;12.93;;;3.13;;
20619;SDS011;10469;42.720;23.252;2023-07-20T01:35:13;9.85;;;3.20;;
20619;SDS011;10469;42.720;23.252;2023-07-20T01:37:42;7.85;;;2.80;;
20619;SDS011;10469;42.720;23.252;2023-07-20T01:40:10;8.88;;;2.95;;
20619;SDS011;10469;42.720;23.252;2023-07-20T01:42:37;11.40;;;2.58;;
20619;SDS011;10469;42.720;23.252;2023-07-20T01:45:03;11.55;;;2.40;;
20619;SDS011;10469;42.720;23.252;2023-07-20T01:47:29;16.83;;;2.85;;
20619;SDS011;10469;42.720;23.252;2023-07-20T01:49:55;6.03;;;2.60;;
20619;SDS011;10469;42.720;23.252;2023-07-20T01:52:20;9.48;;;3.15;;
20619;SDS011;10469;42.720;23.252;2023-07-20T01:54:46;11.68;;;3.03;;
20619;SDS011;10469;42.720;23.252;2023-07-20T01:57:11;11.18;;;2.97;;
20619;SDS011;10469;42.720;23.252;2023-07-20T01:59:37;5.80;;;2.63;;
20619;SDS011;10469;42.720;23.252;2023-07-20T02:02:03;10.85;;;2.45;;
20619;SDS011;10469;42.720;23.252;2023-07-20T02:04:28;10.93;;;2.60;;
20619;SDS011;10469;42.720;23.252;2023-07-20T02:06:54;9.75;;;2.88;;
20619;SDS011;10469;42.720;23.252;2023-07-20T02:09:20;11.55;;;3.17;;
20619;SDS011;10469;42.720;23.252;2023-07-20T02:11:45;14.32;;;3.10;;
20619;SDS011;10469;42.720;23.252;2023-07-20T02:14:11;8.73;;;2.95;;
20619;SDS011;10469;42.720;23.252;2023-07-20T02:16:36;9.30;;;2.75;;
20619;SDS011;10469;42.720;23.252;2023-07-20T02:19:02;10.88;;;2.78;;
20619;SDS011;10469;42.720;23.252;2023-07-20T02:21:29;8.82;;;2.70;;
20619;SDS011;10469;42.720;23.252;2023-07-20T02:23:54;9.50;;;3.38;;
20619;SDS011;10469;42.720;23.252;2023-07-20T02:26:20;9.93;;;2.97;;
20619;SDS011;10469;42.720;23.252;2023-07-20T02:28:46;10.30;;;2.70;;
20619;SDS011;10469;42.720;23.252;2023-07-20T02:31:11;12.15;;;3.22;;
20619;SDS011;10469;42.720;23.252;2023-07-20T02:33:37;5.88;;;2.70;;
20619;SDS011;10469;42.720;23.252;2023-07-20T02:36:02;7.70;;;2.63;;
20619;SDS011;10469;42.720;23.252;2023-07-20T02:38:28;21.02;;;3.45;;
20619;SDS011;10469;42.720;23.252;2023-07-20T02:40:54;11.27;;;2.97;;
20619;SDS011;10469;42.720;23.252;2023-07-20T02:43:19;8.35;;;3.20;;
20619;SDS011;10469;42.720;23.252;2023-07-20T02:45:45;17.58;;;3.40;;
20619;SDS011;10469;42.720;23.252;2023-07-20T02:48:11;10.85;;;3.25;;
20619;SDS011;10469;42.720;23.252;2023-07-20T02:50:36;15.50;;;3.20;;
20619;SDS011;10469;42.720;23.252;2023-07-20T02:53:02;15.23;;;3.67;;
20619;SDS011;10469;42.720;23.252;2023-07-20T02:55:28;12.02;;;3.55;;
20619;SDS011;10469;42.720;23.252;2023-07-20T02:57:53;14.98;;;3.47;;
20619;SDS011;10469;42.720;23.252;2023-07-20T03:00:19;8.38;;;3.45;;
20619;SDS011;10469;42.720;23.252;2023-07-20T03:02:45;9.57;;;3.22;;
20619;SDS011;10469;42.720;23.252;2023-07-20T03:05:17;9.80;;;3.65;;
20619;SDS011;10469;42.720;23.252;2023-07-20T03:07:42;11.57;;;3.83;;
20619;SDS011;10469;42.720;23.252;2023-07-20T03:10:08;11.85;;;3.40;;
20619;SDS011;10469;42.720;23.252;2023-07-20T03:12:35;11.23;;;3.55;;
20619;SDS011;10469;42.720;23.252;2023-07-20T03:15:04;10.25;;;4.28;;
20619;SDS011;10469;42.720;23.252;2023-07-20T03:17:30;13.25;;;3.45;;
20619;SDS011;10469;42.720;23.252;2023-07-20T03:19:55;14.35;;;4.05;;
20619;SDS011;10469;42.720;23.252;2023-07-20T03:22:21;8.85;;;3.88;;
20619;SDS011;10469;42.720;23.252;2023-07-20T03:24:47;12.13;;;4.60;;
20619;SDS011;10469;42.720;23.252;2023-07-20T03:27:13;10.88;;;4.05;;
20619;SDS011;10469;42.720;23.252;2023-07-20T03:29:38;18.98;;;3.97;;
20619;SDS011;10469;42.720;23.252;2023-07-20T03:32:05;13.25;;;3.83;;
20619;SDS011;10469;42.720;23.252;2023-07-20T03:34:31;17.02;;;5.00;;
20619;SDS011;10469;42.720;23.252;2023-07-20T03:36:56;11.43;;;4.22;;
20619;SDS011;10469;42.720;23.252;2023-07-20T03:39:22;12.60;;;3.97;;
20619;SDS011;10469;42.720;23.252;2023-07-20T03:41:48;7.97;;;4.00;;
20619;SDS011;10469;42.720;23.252;2023-07-20T03:44:13;20.05;;;4.20;;
20619;SDS011;10469;42.720;23.252;2023-07-20T03:46:39;12.85;;;3.88;;
20619;SDS011;10469;42.720;23.252;2023-07-20T03:49:04;11.45;;;4.25;;
20619;SDS011;10469;42.720;23.252;2023-07-20T03:51:31;9.85;;;4.22;;
20619;SDS011;10469;42.720;23.252;2023-07-20T03:53:57;9.07;;;3.70;;
20619;SDS011;10469;42.720;23.252;2023-07-20T03:56:23;16.42;;;4.22;;
20619;SDS011;10469;42.720;23.252;2023-07-20T03:58:49;13.18;;;4.22;;
20619;SDS011;10469;42.720;23.252;2023-07-20T04:01:15;23.50;;;4.45;;
20619;SDS011;10469;42.720;23.252;2023-07-20T04:03:42;11.88;;;3.80;;
20619;SDS011;10469;42.720;23.252;2023-07-20T04:06:08;13.68;;;4.10;;
20619;SDS011;10469;42.720;23.252;2023-07-20T04:08:33;15.38;;;4.75;;
20619;SDS011;10469;42.720;23.252;2023-07-20T04:11:01;13.70;;;3.75;;
20619;SDS011;10469;42.720;23.252;2023-07-20T04:13:27;16.40;;;3.95;;
20619;SDS011;10469;42.720;23.252;2023-07-20T04:15:53;19.60;;;4.60;;
20619;SDS011;10469;42.720;23.252;2023-07-20T04:18:20;13.32;;;4.88;;
20619;SDS011;10469;42.720;23.252;2023-07-20T04:20:45;16.60;;;4.22;;
20619;SDS011;10469;42.720;23.252;2023-07-20T04:23:11;11.70;;;3.78;;
20619;SDS011;10469;42.720;23.252;2023-07-20T04:25:39;16.60;;;4.40;;
20619;SDS011;10469;42.720;23.252;2023-07-20T04:28:08;10.32;;;4.35;;
20619;SDS011;10469;42.720;23.252;2023-07-20T04:30:35;11.85;;;4.00;;
20619;SDS011;10469;42.720;23.252;2023-07-20T04:33:01;14.63;;;4.07;;
20619;SDS011;10469;42.720;23.252;2023-07-20T04:35:47;20.52;;;5.85;;
20619;SDS011;10469;42.720;23.252;2023-07-20T04:38:15;26.25;;;6.15;;
20619;SDS011;10469;42.720;23.252;2023-07-20T04:40:42;29.42;;;5.90;;
20619;SDS011;10469;42.720;23.252;2023-07-20T04:43:12;13.38;;;4.90;;
20619;SDS011;10469;42.720;23.252;2023-07-20T04:45:38;12.82;;;4.40;;
20619;SDS011;10469;42.720;23.252;2023-07-20T04:48:08;27.80;;;13.80;;
20619;SDS011;10469;42.720;23.252;2023-07-20T04:50:42;26.95;;;12.95;;
20619;SDS011;10469;42.720;23.252;2023-07-20T04:53:10;20.48;;;10.52;;
20619;SDS011;10469;42.720;23.252;2023-07-20T04:55:37;21.83;;;8.18;;
20619;SDS011;10469;42.720;23.252;2023-07-20T04:58:04;20.20;;;9.40;;
20619;SDS011;10469;42.720;23.252;2023-07-20T05:00:31;16.92;;;8.93;;
20619;SDS011;10469;42.720;23.252;2023-07-20T05:02:58;17.92;;;7.72;;
20619;SDS011;10469;42.720;23.252;2023-07-20T05:05:23;20.20;;;7.50;;
20619;SDS011;10469;42.720;23.252;2023-07-20T05:07:49;17.23;;;6.65;;
20619;SDS011;10469;42.720;23.252;2023-07-20T05:10:14;17.67;;;6.32;;
20619;SDS011;10469;42.720;23.252;2023-07-20T05:12:40;21.20;;;5.78;;
20619;SDS011;10469;42.720;23.252;2023-07-20T05:15:06;20.90;;;6.13;;
20619;SDS011;10469;42.720;23.252;2023-07-20T05:17:32;12.25;;;5.63;;
20619;SDS011;10469;42.720;23.252;2023-07-20T05:19:57;17.73;;;6.13;;
20619;SDS011;10469;42.720;23.252;2023-07-20T05:22:23;19.10;;;7.78;;
20619;SDS011;10469;42.720;23.252;2023-07-20T05:24:50;17.50;;;5.70;;
20619;SDS011;10469;42.720;23.252;2023-07-20T05:27:15;26.73;;;7.35;;
20619;SDS011;10469;42.720;23.252;2023-07-20T05:29:44;14.25;;;5.45;;
20619;SDS011;10469;42.720;23.252;2023-07-20T05:32:11;18.90;;;6.07;;
20619;SDS011;10469;42.720;23.252;2023-07-20T05:34:36;18.48;;;6.32;;
20619;SDS011;10469;42.720;23.252;2023-07-20T05:37:02;18.80;;;5.70;;
20619;SDS011;10469;42.720;23.252;2023-07-20T05:39:28;24.35;;;6.30;;
20619;SDS011;10469;42.720;23.252;2023-07-20T05:41:53;24.38;;;6.65;;
20619;SDS011;10469;42.720;23.252;2023-07-20T05:44:19;20.92;;;6.57;;
20619;SDS011;10469;42.720;23.252;2023-07-20T05:46:44;28.80;;;6.50;;
20619;SDS011;10469;42.720;23.252;2023-07-20T05:49:10;24.67;;;6.32;;
20619;SDS011;10469;42.720;23.252;2023-07-20T05:51:36;17.88;;;5.38;;
20619;SDS011;10469;42.720;23.252;2023-07-20T05:54:01;20.38;;;4.97;;
20619;SDS011;10469;42.720;23.252;2023-07-20T05:56:27;14.32;;;5.38;;
20619;SDS011;10469;42.720;23.252;2023-07-20T05:58:52;19.55;;;5.18;;
20619;SDS011;10469;42.720;23.252;2023-07-20T06:01:18;16.83;;;5.40;;
20619;SDS011;10469;42.720;23.252;2023-07-20T06:03:44;18.48;;;5.75;;
20619;SDS011;10469;42.720;23.252;2023-07-20T06:06:10;19.60;;;5.15;;
20619;SDS011;10469;42.720;23.252;2023-07-20T06:08:37;12.57;;;5.25;;
20619;SDS011;10469;42.720;23.252;2023-07-20T06:11:03;16.98;;;5.68;;
20619;SDS011;10469;42.720;23.252;2023-07-20T06:13:29;14.70;;;5.95;;
20619;SDS011;10469;42.720;23.252;2023-07-20T06:15:54;25.65;;;7.20;;
20619;SDS011;10469;42.720;23.252;2023-07-20T06:18:22;15.68;;;5.25;;
20619;SDS011;10469;42.720;23.252;2023-07-20T06:20:51;25.42;;;6.30;;
20619;SDS011;10469;42.720;23.252;2023-07-20T06:23:19;12.95;;;5.88;;
20619;SDS011;10469;42.720;23.252;2023-07-20T06:25:45;15.63;;;5.55;;
20619;SDS011;10469;42.720;23.252;2023-07-20T06:28:11;25.38;;;5.65;;
20619;SDS011;10469;42.720;23.252;2023-07-20T06:30:37;17.40;;;5.55;;
20619;SDS011;10469;42.720;23.252;2023-07-20T06:33:02;19.77;;;5.63;;
20619;SDS011;10469;42.720;23.252;2023-07-20T06:35:28;19.33;;;5.60;;
20619;SDS011;10469;42.720;23.252;2023-07-20T06:37:54;17.90;;;5.65;;
20619;SDS011;10469;42.720;23.252;2023-07-20T06:40:20;18.50;;;5.43;;
20619;SDS011;10469;42.720;23.252;2023-07-20T06:42:46;15.20;;;5.10;;
20619;SDS011;10469;42.720;23.252;2023-07-20T06:45:12;19.20;;;5.38;;
20619;SDS011;10469;42.720;23.252;2023-07-20T06:47:38;19.17;;;5.20;;
20619;SDS011;10469;42.720;23.252;2023-07-20T06:50:05;15.55;;;5.35;;
20619;SDS011;10469;42.720;23.252;2023-07-20T06:52:32;16.20;;;5.05;;
20619;SDS011;10469;42.720;23.252;2023-07-20T06:54:58;20.92;;;5.55;;
20619;SDS011;10469;42.720;23.252;2023-07-20T06:57:24;19.88;;;5.43;;
20619;SDS011;10469;42.720;23.252;2023-07-20T06:59:50;22.25;;;5.78;;
20619;SDS011;10469;42.720;23.252;2023-07-20T07:02:16;16.25;;;5.88;;
20619;SDS011;10469;42.720;23.252;2023-07-20T07:04:41;18.65;;;5.57;;
20619;SDS011;10469;42.720;23.252;2023-07-20T07:07:07;21.55;;;5.50;;
20619;SDS011;10469;42.720;23.252;2023-07-20T07:09:34;18.13;;;5.55;;
20619;SDS011;10469;42.720;23.252;2023-07-20T07:12:00;17.45;;;5.03;;
20619;SDS011;10469;42.720;23.252;2023-07-20T07:14:25;16.25;;;4.90;;
20619;SDS011;10469;42.720;23.252;2023-07-20T07:16:51;17.05;;;5.15;;
20619;SDS011;10469;42.720;23.252;2023-07-20T07:19:17;12.38;;;4.32;;
20619;SDS011;10469;42.720;23.252;2023-07-20T07:21:42;13.93;;;4.25;;
20619;SDS011;10469;42.720;23.252;2023-07-20T07:24:08;20.02;;;4.70;;
20619;SDS011;10469;42.720;23.252;2023-07-20T07:26:35;18.35;;;5.20;;
20619;SDS011;10469;42.720;23.252;2023-07-20T07:29:01;19.50;;;4.68;;
20619;SDS011;10469;42.720;23.252;2023-07-20T07:31:28;14.68;;;4.30;;
20619;SDS011;10469;42.720;23.252;2023-07-20T07:33:55;10.88;;;4.15;;
20619;SDS011;10469;42.720;23.252;2023-07-20T07:36:21;15.60;;;4.72;;
20619;SDS011;10469;42.720;23.252;2023-07-20T07:38:47;13.05;;;4.30;;
20619;SDS011;10469;42.720;23.252;2023-07-20T07:41:13;16.38;;;4.40;;
20619;SDS011;10469;42.720;23.252;2023-07-20T07:43:39;13.60;;;4.25;;
20619;SDS011;10469;42.720;23.252;2023-07-20T07:46:04;18.45;;;4.93;;
20619;SDS011;10469;42.720;23.252;2023-07-20T07:48:31;25.67;;;4.82;;
20619;SDS011;10469;42.720;23.252;2023-07-20T07:50:57;17.70;;;4.80;;
20619;SDS011;10469;42.720;23.252;2023-07-20T07:53:23;18.05;;;4.93;;
20619;SDS011;10469;42.720;23.252;2023-07-20T07:55:50;16.38;;;4.40;;
20619;SDS011;10469;42.720;23.252;2023-07-20T07:58:16;21.20;;;4.20;;
20619;SDS011;10469;42.720;23.252;2023-07-20T08:00:42;13.30;;;4.30;;
20619;SDS011;10469;42.720;23.252;2023-07-20T08:03:09;19.85;;;4.28;;
20619;SDS011;10469;42.720;23.252;2023-07-20T08:05:35;14.90;;;4.40;;
20619;SDS011;10469;42.720;23.252;2023-07-20T08:08:02;18.13;;;4.25;;
20619;SDS011;10469;42.720;23.252;2023-07-20T08:10:29;16.30;;;4.60;;
20619;SDS011;10469;42.720;23.252;2023-07-20T08:12:55;16.45;;;4.18;;
20619;SDS011;10469;42.720;23.252;2023-07-20T08:15:20;19.67;;;3.88;;
20619;SDS011;10469;42.720;23.252;2023-07-20T08:17:47;10.50;;;3.30;;
20619;SDS011;10469;42.720;23.252;2023-07-20T08:20:14;10.18;;;3.47;;
20619;SDS011;10469;42.720;23.252;2023-07-20T08:22:42;11.40;;;3.33;;
20619;SDS011;10469;42.720;23.252;2023-07-20T08:25:08;16.85;;;3.47;;
20619;SDS011;10469;42.720;23.252;2023-07-20T08:27:34;9.52;;;3.17;;
20619;SDS011;10469;42.720;23.252;2023-07-20T08:30:00;14.18;;;3.30;;
20619;SDS011;10469;42.720;23.252;2023-07-20T08:32:26;7.97;;;2.90;;
20619;SDS011;10469;42.720;23.252;2023-07-20T08:34:52;15.23;;;3.25;;
20619;SDS011;10469;42.720;23.252;2023-07-20T08:37:17;13.88;;;3.30;;
20619;SDS011;10469;42.720;23.252;2023-07-20T08:39:43;14.82;;;3.33;;
20619;SDS011;10469;42.720;23.252;2023-07-20T08:42:09;18.08;;;3.47;;
20619;SDS011;10469;42.720;23.252;2023-07-20T08:44:36;16.35;;;3.28;;
20619;SDS011;10469;42.720;23.252;2023-07-20T08:47:04;14.57;;;3.05;;
20619;SDS011;10469;42.720;23.252;2023-07-20T08:49:32;11.00;;;3.03;;
20619;SDS011;10469;42.720;23.252;2023-07-20T08:51:59;13.60;;;3.33;;
20619;SDS011;10469;42.720;23.252;2023-07-20T08:54:26;11.40;;;3.58;;
20619;SDS011;10469;42.720;23.252;2023-07-20T08:56:54;19.70;;;3.78;;
20619;SDS011;10469;42.720;23.252;2023-07-20T08:59:22;11.82;;;3.03;;
20619;SDS011;10469;42.720;23.252;2023-07-20T09:01:51;12.10;;;2.85;;
20619;SDS011;10469;42.720;23.252;2023-07-20T09:04:19;14.00;;;3.65;;
20619;SDS011;10469;42.720;23.252;2023-07-20T09:06:44;14.82;;;3.45;;
20619;SDS011;10469;42.720;23.252;2023-07-20T09:09:10;14.43;;;3.10;;
20619;SDS011;10469;42.720;23.252;2023-07-20T09:11:36;10.93;;;3.28;;
20619;SDS011;10469;42.720;23.252;2023-07-20T09:14:10;13.38;;;3.40;;
20619;SDS011;10469;42.720;23.252;2023-07-20T09:16:54;11.80;;;3.47;;
20619;SDS011;10469;42.720;23.252;2023-07-20T09:19:21;16.27;;;3.05;;
20619;SDS011;10469;42.720;23.252;2023-07-20T09:21:50;10.93;;;2.95;;
20619;SDS011;10469;42.720;23.252;2023-07-20T09:24:17;14.30;;;3.25;;
20619;SDS011;10469;42.720;23.252;2023-07-20T09:26:44;12.55;;;3.60;;
20619;SDS011;10469;42.720;23.252;2023-07-20T09:29:13;13.98;;;3.55;;
20619;SDS011;10469;42.720;23.252;2023-07-20T09:31:39;14.65;;;3.60;;
20619;SDS011;10469;42.720;23.252;2023-07-20T09:34:07;12.07;;;3.20;;
20619;SDS011;10469;42.720;23.252;2023-07-20T09:36:34;17.60;;;3.40;;
20619;SDS011;10469;42.720;23.252;2023-07-20T09:39:01;20.77;;;3.90;;
20619;SDS011;10469;42.720;23.252;2023-07-20T09:41:28;11.85;;;2.85;;
20619;SDS011;10469;42.720;23.252;2023-07-20T09:43:54;12.38;;;3.00;;
20619;SDS011;10469;42.720;23.252;2023-07-20T09:46:20;13.18;;;3.15;;
20619;SDS011;10469;42.720;23.252;2023-07-20T09:48:52;5.90;;;3.03;;
20619;SDS011;10469;42.720;23.252;2023-07-20T09:51:22;12.45;;;3.15;;
20619;SDS011;10469;42.720;23.252;2023-07-20T09:53:48;8.93;;;3.20;;
20619;SDS011;10469;42.720;23.252;2023-07-20T09:56:15;10.93;;;2.67;;
20619;SDS011;10469;42.720;23.252;2023-07-20T09:58:42;11.93;;;3.22;;
20619;SDS011;10469;42.720;23.252;2023-07-20T10:01:10;13.43;;;3.28;;
20619;SDS011;10469;42.720;23.252;2023-07-20T10:03:39;9.20;;;3.15;;
20619;SDS011;10469;42.720;23.252;2023-07-20T10:06:08;9.75;;;2.97;;
20619;SDS011;10469;42.720;23.252;2023-07-20T10:08:41;16.45;;;3.17;;
20619;SDS011;10469;42.720;23.252;2023-07-20T10:11:07;8.40;;;3.10;;
20619;SDS011;10469;42.720;23.252;2023-07-20T10:13:36;12.38;;;2.75;;
20619;SDS011;10469;42.720;23.252;2023-07-20T10:16:03;14.50;;;2.75;;
20619;SDS011;10469;42.720;23.252;2023-07-20T10:21:29;11.68;;;2.70;;
20619;SDS011;10469;42.720;23.252;2023-07-20T10:23:58;8.90;;;2.90;;
20619;SDS011;10469;42.720;23.252;2023-07-20T10:26:27;14.90;;;2.97;;
20619;SDS011;10469;42.720;23.252;2023-07-20T10:28:53;9.73;;;3.50;;
20619;SDS011;10469;42.720;23.252;2023-07-20T10:31:20;7.68;;;3.33;;
20619;SDS011;10469;42.720;23.252;2023-07-20T10:33:46;10.95;;;3.15;;
20619;SDS011;10469;42.720;23.252;2023-07-20T10:36:12;10.55;;;3.20;;
20619;SDS011;10469;42.720;23.252;2023-07-20T10:41:17;10.43;;;3.75;;
20619;SDS011;10469;42.720;23.252;2023-07-20T10:43:43;8.73;;;2.70;;
20619;SDS011;10469;42.720;23.252;2023-07-20T10:46:10;13.50;;;3.35;;
20619;SDS011;10469;42.720;23.252;2023-07-20T10:48:58;13.73;;;3.00;;
20619;SDS011;10469;42.720;23.252;2023-07-20T10:51:31;8.85;;;2.58;;
20619;SDS011;10469;42.720;23.252;2023-07-20T10:56:41;14.88;;;3.00;;
20619;SDS011;10469;42.720;23.252;2023-07-20T11:02:06;7.20;;;2.58;;
20619;SDS011;10469;42.720;23.252;2023-07-20T11:04:39;9.18;;;3.03;;
20619;SDS011;10469;42.720;23.252;2023-07-20T11:07:08;10.30;;;3.25;;
20619;SDS011;10469;42.720;23.252;2023-07-20T11:09:34;11.50;;;3.10;;
20619;SDS011;10469;42.720;23.252;2023-07-20T11:12:13;10.32;;;3.35;;
20619;SDS011;10469;42.720;23.252;2023-07-20T11:17:17;8.82;;;3.45;;
20619;SDS011;10469;42.720;23.252;2023-07-20T11:19:47;5.65;;;2.97;;
20619;SDS011;10469;42.720;23.252;2023-07-20T11:22:13;14.85;;;3.00;;
20619;SDS011;10469;42.720;23.252;2023-07-20T11:24:42;9.77;;;2.63;;
20619;SDS011;10469;42.720;23.252;2023-07-20T11:27:08;6.60;;;2.75;;
20619;SDS011;10469;42.720;23.252;2023-07-20T11:29:34;12.98;;;3.38;;
20619;SDS011;10469;42.720;23.252;2023-07-20T11:32:01;8.38;;;3.30;;
20619;SDS011;10469;42.720;23.252;2023-07-20T11:34:29;13.30;;;3.40;;
20619;SDS011;10469;42.720;23.252;2023-07-20T11:36:56;6.88;;;3.03;;
20619;SDS011;10469;42.720;23.252;2023-07-20T11:39:22;7.78;;;3.38;;
20619;SDS011;10469;42.720;23.252;2023-07-20T11:41:48;11.98;;;3.47;;
20619;SDS011;10469;42.720;23.252;2023-07-20T11:44:18;7.68;;;3.42;;
20619;SDS011;10469;42.720;23.252;2023-07-20T11:46:46;10.70;;;3.63;;
20619;SDS011;10469;42.720;23.252;2023-07-20T11:49:11;9.98;;;3.25;;
20619;SDS011;10469;42.720;23.252;2023-07-20T11:51:38;4.88;;;2.70;;
20619;SDS011;10469;42.720;23.252;2023-07-20T11:54:08;13.70;;;3.78;;
20619;SDS011;10469;42.720;23.252;2023-07-20T11:56:35;10.13;;;3.15;;
20619;SDS011;10469;42.720;23.252;2023-07-20T11:59:00;7.93;;;3.17;;
20619;SDS011;10469;42.720;23.252;2023-07-20T12:01:28;11.30;;;3.75;;
20619;SDS011;10469;42.720;23.252;2023-07-20T12:03:57;15.05;;;3.42;;
20619;SDS011;10469;42.720;23.252;2023-07-20T12:06:24;13.90;;;3.20;;
20619;SDS011;10469;42.720;23.252;2023-07-20T12:08:50;9.23;;;3.35;;
20619;SDS011;10469;42.720;23.252;2023-07-20T12:11:34;12.02;;;3.65;;
20619;SDS011;10469;42.720;23.252;2023-07-20T12:13:59;8.05;;;3.42;;
20619;SDS011;10469;42.720;23.252;2023-07-20T12:16:28;14.60;;;3.38;;
20619;SDS011;10469;42.720;23.252;2023-07-20T12:19:15;7.30;;;3.00;;
20619;SDS011;10469;42.720;23.252;2023-07-20T12:21:41;14.88;;;3.58;;
20619;SDS011;10469;42.720;23.252;2023-07-20T12:24:07;14.13;;;3.72;;
20619;SDS011;10469;42.720;23.252;2023-07-20T12:26:37;10.20;;;3.17;;
20619;SDS011;10469;42.720;23.252;2023-07-20T12:29:02;7.68;;;3.13;;
20619;SDS011;10469;42.720;23.252;2023-07-20T12:31:28;7.40;;;3.28;;
20619;SDS011;10469;42.720;23.252;2023-07-20T12:33:55;12.55;;;3.80;;
20619;SDS011;10469;42.720;23.252;2023-07-20T12:36:22;14.15;;;3.60;;
20619;SDS011;10469;42.720;23.252;2023-07-20T12:38:48;13.60;;;3.45;;
20619;SDS011;10469;42.720;23.252;2023-07-20T12:41:14;8.05;;;2.90;;
20619;SDS011;10469;42.720;23.252;2023-07-20T12:43:43;8.73;;;3.30;;
20619;SDS011;10469;42.720;23.252;2023-07-20T12:46:09;10.50;;;3.03;;
20619;SDS011;10469;42.720;23.252;2023-07-20T12:48:37;18.35;;;3.83;;
20619;SDS011;10469;42.720;23.252;2023-07-20T12:51:03;13.90;;;4.00;;
20619;SDS011;10469;42.720;23.252;2023-07-20T12:53:30;12.25;;;3.65;;
20619;SDS011;10469;42.720;23.252;2023-07-20T12:55:57;16.70;;;3.20;;
20619;SDS011;10469;42.720;23.252;2023-07-20T12:58:23;18.10;;;3.50;;
20619;SDS011;10469;42.720;23.252;2023-07-20T13:00:48;5.82;;;2.75;;
20619;SDS011;10469;42.720;23.252;2023-07-20T13:03:14;10.52;;;3.22;;
20619;SDS011;10469;42.720;23.252;2023-07-20T13:05:41;11.90;;;3.30;;
20619;SDS011;10469;42.720;23.252;2023-07-20T13:08:06;9.00;;;3.20;;
20619;SDS011;10469;42.720;23.252;2023-07-20T13:10:32;11.43;;;3.05;;
20619;SDS011;10469;42.720;23.252;2023-07-20T13:12:57;12.73;;;3.08;;
20619;SDS011;10469;42.720;23.252;2023-07-20T13:15:29;8.13;;;3.35;;
20619;SDS011;10469;42.720;23.252;2023-07-20T13:17:57;16.70;;;3.88;;
20619;SDS011;10469;42.720;23.252;2023-07-20T13:20:23;8.88;;;3.10;;
20619;SDS011;10469;42.720;23.252;2023-07-20T13:22:49;10.18;;;3.28;;
20619;SDS011;10469;42.720;23.252;2023-07-20T13:25:14;8.07;;;3.30;;
20619;SDS011;10469;42.720;23.252;2023-07-20T13:27:40;9.73;;;2.97;;
20619;SDS011;10469;42.720;23.252;2023-07-20T13:30:06;9.45;;;3.05;;
20619;SDS011;10469;42.720;23.252;2023-07-20T13:32:33;15.10;;;3.35;;
20619;SDS011;10469;42.720;23.252;2023-07-20T13:34:58;9.77;;;3.17;;
20619;SDS011;10469;42.720;23.252;2023-07-20T13:37:24;8.88;;;3.10;;
20619;SDS011;10469;42.720;23.252;2023-07-20T13:39:50;11.13;;;3.55;;
20619;SDS011;10469;42.720;23.252;2023-07-20T13:42:16;15.07;;;3.53;;
20619;SDS011;10469;42.720;23.252;2023-07-20T13:44:42;9.95;;;3.05;;
20619;SDS011;10469;42.720;23.252;2023-07-20T13:47:07;7.00;;;3.10;;
20619;SDS011;10469;42.720;23.252;2023-07-20T13:49:33;14.15;;;2.92;;
20619;SDS011;10469;42.720;23.252;2023-07-20T13:51:58;18.60;;;3.30;;
20619;SDS011;10469;42.720;23.252;2023-07-20T13:54:24;10.80;;;3.08;;
20619;SDS011;10469;42.720;23.252;2023-07-20T13:56:50;11.93;;;3.13;;
20619;SDS011;10469;42.720;23.252;2023-07-20T13:59:16;11.35;;;3.25;;
20619;SDS011;10469;42.720;23.252;2023-07-20T14:01:42;9.43;;;2.65;;
20619;SDS011;10469;42.720;23.252;2023-07-20T14:04:08;11.98;;;3.63;;
20619;SDS011;10469;42.720;23.252;2023-07-20T14:06:34;11.20;;;2.75;;
20619;SDS011;10469;42.720;23.252;2023-07-20T14:09:00;17.05;;;3.00;;
20619;SDS011;10469;42.720;23.252;2023-07-20T14:11:25;7.95;;;2.55;;
20619;SDS011;10469;42.720;23.252;2023-07-20T14:13:52;14.98;;;3.58;;
20619;SDS011;10469;42.720;23.252;2023-07-20T14:16:18;11.85;;;3.05;;
20619;SDS011;10469;42.720;23.252;2023-07-20T14:18:44;12.27;;;3.00;;
20619;SDS011;10469;42.720;23.252;2023-07-20T14:21:14;10.02;;;3.00;;
20619;SDS011;10469;42.720;23.252;2023-07-20T14:23:40;10.93;;;3.15;;
20619;SDS011;10469;42.720;23.252;2023-07-20T14:26:05;10.02;;;3.58;;
20619;SDS011;10469;42.720;23.252;2023-07-20T14:28:32;8.77;;;3.20;;
20619;SDS011;10469;42.720;23.252;2023-07-20T14:30:58;8.55;;;2.88;;
20619;SDS011;10469;42.720;23.252;2023-07-20T14:33:23;15.10;;;3.20;;
20619;SDS011;10469;42.720;23.252;2023-07-20T14:35:49;16.83;;;3.35;;
20619;SDS011;10469;42.720;23.252;2023-07-20T14:38:15;8.73;;;3.00;;
20619;SDS011;10469;42.720;23.252;2023-07-20T14:40:40;10.40;;;3.33;;
20619;SDS011;10469;42.720;23.252;2023-07-20T14:43:06;10.10;;;3.00;;
20619;SDS011;10469;42.720;23.252;2023-07-20T14:45:32;12.07;;;3.65;;
20619;SDS011;10469;42.720;23.252;2023-07-20T14:47:57;10.48;;;3.03;;
20619;SDS011;10469;42.720;23.252;2023-07-20T14:50:23;13.30;;;3.22;;